createdAt,value
2022-12-06T00:01:39.786Z,52.43
2022-12-06T00:04:11.929Z,52.61
2022-12-06T00:06:44.426Z,52.75
2022-12-06T00:09:18.966Z,52.49
2022-12-06T00:11:47.610Z,52.33
2022-12-06T00:14:16.268Z,52.28
2022-12-06T00:16:44.916Z,52.58
2022-12-06T00:19:15.174Z,52.66
2022-12-06T00:21:47.425Z,52.05
2022-12-06T00:24:18.855Z,52.43
2022-12-06T00:26:49.767Z,53.17
2022-12-06T00:29:20.987Z,52.40
2022-12-06T00:31:50.601Z,52.54
2022-12-06T00:34:19.337Z,52.29
2022-12-06T00:36:49.235Z,52.18
2022-12-06T00:39:18.818Z,52.91
2022-12-06T00:41:48.761Z,52.46
2022-12-06T00:44:16.951Z,52.32
2022-12-06T00:46:45.567Z,52.56
2022-12-06T00:49:13.918Z,52.60
2022-12-06T00:51:43.550Z,52.73
2022-12-06T00:54:14.417Z,52.69
2022-12-06T00:56:42.982Z,52.92
2022-12-06T00:59:11.672Z,52.70
2022-12-06T01:01:41.208Z,52.66
2022-12-06T01:04:11.121Z,52.67
2022-12-06T01:06:39.761Z,52.33
2022-12-06T01:09:10.278Z,52.88
2022-12-06T01:11:40.151Z,53.03
2022-12-06T01:14:08.697Z,53.29
2022-12-06T01:16:37.542Z,52.59
2022-12-06T01:19:06.734Z,53.15
2022-12-06T01:21:35.295Z,52.91
2022-12-06T01:24:04.342Z,53.12
2022-12-06T01:26:35.037Z,52.90
2022-12-06T01:29:04.448Z,52.87
2022-12-06T01:31:38.179Z,52.81
2022-12-06T01:34:11.077Z,52.82
2022-12-06T01:36:39.698Z,52.78
2022-12-06T01:39:10.969Z,52.66
2022-12-06T01:41:40.191Z,52.79
2022-12-06T01:44:50.377Z,53.02
2022-12-06T01:47:30.627Z,52.63
2022-12-06T01:50:13.638Z,52.95
2022-12-06T01:52:58.789Z,52.82
2022-12-06T01:55:29.818Z,52.34
2022-12-06T01:58:01.267Z,52.69
2022-12-06T02:00:29.575Z,52.60
2022-12-06T02:03:01.035Z,51.86
2022-12-06T02:05:34.928Z,51.88
2022-12-06T02:08:09.532Z,52.43
2022-12-06T02:10:38.541Z,52.45
2022-12-06T02:13:09.250Z,52.57
2022-12-06T02:15:49.217Z,52.69
2022-12-06T02:18:35.828Z,52.39
2022-12-06T02:21:36.089Z,52.66
2022-12-06T02:24:08.859Z,52.55
2022-12-06T02:26:43.998Z,52.62
2022-12-06T02:29:17.388Z,52.67
2022-12-06T02:31:48.942Z,52.64
2022-12-06T02:34:40.838Z,52.56
2022-12-06T02:37:36.772Z,52.43
2022-12-06T02:40:17.285Z,52.60
2022-12-06T02:42:59.110Z,52.32
2022-12-06T02:45:34.512Z,52.42
2022-12-06T02:48:04.497Z,52.42
2022-12-06T02:50:37.628Z,52.44
2022-12-06T02:53:09.455Z,52.16
2022-12-06T02:55:39.049Z,52.10
2022-12-06T02:58:07.502Z,51.93
2022-12-06T03:00:43.496Z,52.08
2022-12-06T03:03:39.389Z,52.10
2022-12-06T03:06:48.289Z,52.01
2022-12-06T03:09:47.942Z,51.83
2022-12-06T03:12:28.905Z,52.00
2022-12-06T03:15:17.377Z,52.13
2022-12-06T03:17:54.478Z,52.11
2022-12-06T03:20:29.838Z,51.86
2022-12-06T03:23:05.962Z,51.89
2022-12-06T03:25:36.119Z,51.75
2022-12-06T03:28:07.097Z,51.53
2022-12-06T03:30:36.482Z,51.77
2022-12-06T03:33:05.471Z,51.73
2022-12-06T03:35:35.368Z,51.74
2022-12-06T03:38:19.861Z,51.49
2022-12-06T03:40:50.152Z,51.74
2022-12-06T03:43:20.508Z,51.65
2022-12-06T03:46:00.057Z,51.40
2022-12-06T03:48:42.280Z,51.40
2022-12-06T03:51:22.878Z,51.50
2022-12-06T03:53:54.579Z,51.40
2022-12-06T03:56:23.848Z,51.43
2022-12-06T03:58:52.592Z,51.64
2022-12-06T04:01:21.598Z,51.45
2022-12-06T04:03:50.678Z,51.26
2022-12-06T04:06:19.100Z,51.30
2022-12-06T04:08:47.874Z,51.42
2022-12-06T04:11:16.458Z,51.64
2022-12-06T04:13:45.581Z,51.47
2022-12-06T04:16:32.330Z,51.19
2022-12-06T04:19:01.129Z,51.04
2022-12-06T04:21:32.455Z,51.14
2022-12-06T04:24:03.078Z,51.26
2022-12-06T04:26:31.309Z,51.07
2022-12-06T04:29:18.550Z,51.56
2022-12-06T04:32:05.588Z,51.29
2022-12-06T04:34:52.801Z,51.42
2022-12-06T04:37:39.568Z,51.67
2022-12-06T04:40:09.598Z,51.35
2022-12-06T04:42:56.838Z,51.34
2022-12-06T04:45:25.447Z,50.78
2022-12-06T04:47:53.680Z,50.58
2022-12-06T04:50:22.898Z,50.47
2022-12-06T04:52:51.688Z,49.98
2022-12-06T04:55:20.311Z,49.80
2022-12-06T04:57:48.798Z,48.98
2022-12-06T05:00:17.768Z,48.93
2022-12-06T05:02:46.470Z,48.94
2022-12-06T05:05:15.208Z,48.17
2022-12-06T05:07:43.588Z,47.98
2022-12-06T05:10:12.288Z,47.81
2022-12-06T05:12:40.660Z,47.75
2022-12-06T05:15:13.606Z,47.62
2022-12-06T05:17:44.328Z,47.45
2022-12-06T05:20:14.941Z,47.32
2022-12-06T05:22:43.496Z,47.21
2022-12-06T05:25:12.957Z,46.73
2022-12-06T05:27:41.370Z,46.44
2022-12-06T05:30:10.732Z,46.04
2022-12-06T05:32:40.720Z,46.42
2022-12-06T05:35:10.649Z,46.11
2022-12-06T05:37:38.979Z,46.07
2022-12-06T05:40:08.229Z,46.25
2022-12-06T05:42:36.449Z,46.37
2022-12-06T05:45:06.981Z,46.51
2022-12-06T05:47:35.593Z,46.46
2022-12-06T05:50:05.038Z,46.71
2022-12-06T05:52:33.268Z,46.22
2022-12-06T05:55:02.081Z,46.59
2022-12-06T05:57:30.628Z,46.79
2022-12-06T05:59:59.514Z,46.48
2022-12-06T06:02:28.920Z,46.87
2022-12-06T06:04:57.738Z,46.90
2022-12-06T06:07:26.009Z,46.93
2022-12-06T06:09:54.719Z,46.60
2022-12-06T06:12:23.079Z,46.70
2022-12-06T06:14:52.488Z,46.75
2022-12-06T06:17:20.868Z,46.04
2022-12-06T06:19:52.332Z,46.08
2022-12-06T06:22:23.527Z,45.84
2022-12-06T06:24:52.169Z,46.06
2022-12-06T06:27:20.398Z,45.56
2022-12-06T06:29:49.057Z,45.46
2022-12-06T06:32:17.350Z,45.52
2022-12-06T06:34:46.258Z,45.69
2022-12-06T06:37:14.560Z,45.61
2022-12-06T06:39:44.240Z,45.79
2022-12-06T06:42:12.509Z,45.65
2022-12-06T06:44:41.150Z,45.86
2022-12-06T06:47:09.470Z,45.76
2022-12-06T06:49:38.116Z,46.10
2022-12-06T06:52:07.049Z,45.87
2022-12-06T06:54:35.658Z,46.28
2022-12-06T06:57:04.108Z,45.86
2022-12-06T06:59:34.089Z,46.04
2022-12-06T07:02:03.264Z,46.19
2022-12-06T07:04:32.070Z,46.35
2022-12-06T07:07:00.980Z,46.13
2022-12-06T07:09:29.697Z,46.16
2022-12-06T07:11:58.699Z,46.38
2022-12-06T07:14:28.409Z,46.27
2022-12-06T07:16:56.820Z,46.23
2022-12-06T07:19:26.037Z,46.24
2022-12-06T07:21:54.421Z,46.43
2022-12-06T07:24:22.957Z,46.48
2022-12-06T07:26:51.198Z,46.35
2022-12-06T07:29:19.776Z,46.28
2022-12-06T07:31:48.092Z,46.33
2022-12-06T07:34:16.872Z,46.61
2022-12-06T07:36:45.120Z,46.77
2022-12-06T07:39:15.126Z,46.83
2022-12-06T07:42:02.529Z,46.90
2022-12-06T07:45:01.918Z,46.61
2022-12-06T07:47:37.108Z,46.69
2022-12-06T07:50:12.866Z,46.64
2022-12-06T07:52:47.628Z,46.56
2022-12-06T07:55:18.212Z,46.71
2022-12-06T07:57:46.528Z,46.71
2022-12-06T08:00:16.509Z,47.03
2022-12-06T08:02:45.031Z,46.51
2022-12-06T08:05:14.733Z,46.81
2022-12-06T08:07:43.313Z,46.60
2022-12-06T08:10:12.127Z,46.67
2022-12-06T08:12:40.602Z,47.45
2022-12-06T08:15:13.299Z,47.30
2022-12-06T08:17:42.077Z,47.39
2022-12-06T08:20:11.142Z,47.35
2022-12-06T08:22:39.341Z,47.11
2022-12-06T08:25:08.433Z,47.32
2022-12-06T08:27:36.763Z,47.38
2022-12-06T08:30:06.752Z,47.17
2022-12-06T08:32:35.468Z,47.23
2022-12-06T08:35:04.101Z,47.35
2022-12-06T08:37:34.654Z,47.82
2022-12-06T08:40:03.422Z,47.71
2022-12-06T08:42:31.899Z,47.73
2022-12-06T08:45:00.423Z,47.89
2022-12-06T08:47:28.920Z,48.32
2022-12-06T08:49:59.391Z,48.46
2022-12-06T08:52:27.970Z,48.21
2022-12-06T08:54:56.660Z,48.36
2022-12-06T08:57:25.012Z,48.32
2022-12-06T08:59:54.035Z,48.07
2022-12-06T09:02:22.251Z,48.42
2022-12-06T09:04:52.339Z,48.22
2022-12-06T09:07:20.820Z,47.76
2022-12-06T09:09:50.677Z,48.32
2022-12-06T09:12:18.901Z,48.42
2022-12-06T09:14:47.895Z,48.21
2022-12-06T09:17:16.379Z,48.50
2022-12-06T09:19:44.921Z,48.38
2022-12-06T09:22:13.191Z,48.20
2022-12-06T09:24:41.741Z,48.09
2022-12-06T09:27:10.044Z,48.32
2022-12-06T09:29:40.864Z,48.31
2022-12-06T09:32:09.461Z,48.50
2022-12-06T09:34:38.114Z,48.44
2022-12-06T09:37:10.994Z,48.32
2022-12-06T09:39:45.708Z,48.49
2022-12-06T09:42:51.370Z,48.18
2022-12-06T09:45:58.461Z,48.25
2022-12-06T09:48:49.341Z,47.92
2022-12-06T09:51:32.489Z,48.05
2022-12-06T09:54:10.804Z,48.22
2022-12-06T09:56:46.178Z,48.15
2022-12-06T09:59:38.730Z,48.32
2022-12-06T10:02:32.822Z,48.20
2022-12-06T10:05:17.500Z,47.98
2022-12-06T10:08:21.787Z,48.08
2022-12-06T10:11:12.120Z,48.06
2022-12-06T10:14:02.679Z,48.10
2022-12-06T10:16:54.373Z,47.67
2022-12-06T10:19:55.863Z,47.84
2022-12-06T10:22:46.740Z,47.46
2022-12-06T10:25:25.451Z,47.84
2022-12-06T10:28:02.809Z,47.63
2022-12-06T10:30:31.333Z,47.34
2022-12-06T10:33:10.420Z,47.54
2022-12-06T10:35:39.130Z,47.22
2022-12-06T10:38:21.339Z,46.95
2022-12-06T10:40:51.081Z,46.94
2022-12-06T10:43:42.022Z,46.61
2022-12-06T10:46:50.772Z,46.27
2022-12-06T10:49:27.812Z,45.65
2022-12-06T10:52:05.067Z,45.49
2022-12-06T10:54:53.434Z,45.61
2022-12-06T10:57:29.956Z,45.21
2022-12-06T11:00:15.217Z,44.85
2022-12-06T11:03:12.235Z,44.82
2022-12-06T11:06:17.772Z,44.13
2022-12-06T11:08:53.566Z,43.85
2022-12-06T11:11:31.243Z,43.70
2022-12-06T11:14:11.776Z,43.96
2022-12-06T11:17:16.223Z,43.56
2022-12-06T11:19:49.275Z,43.82
2022-12-06T11:22:41.485Z,43.00
2022-12-06T11:25:32.410Z,43.30
2022-12-06T11:28:22.042Z,43.13
2022-12-06T11:30:53.313Z,42.86
2022-12-06T11:33:28.914Z,42.71
2022-12-06T11:36:00.313Z,42.42
2022-12-06T11:38:29.242Z,42.75
2022-12-06T11:40:58.679Z,42.69
2022-12-06T11:43:32.033Z,42.51
2022-12-06T11:46:01.192Z,42.56
2022-12-06T11:48:33.430Z,42.88
2022-12-06T11:51:04.000Z,43.01
2022-12-06T11:53:53.020Z,42.95
2022-12-06T11:56:26.981Z,43.21
2022-12-06T11:59:28.763Z,43.34
2022-12-06T12:02:03.724Z,43.15
2022-12-06T12:04:39.671Z,43.40
2022-12-06T12:07:16.545Z,43.31
2022-12-06T12:10:05.319Z,43.54
2022-12-06T12:13:04.403Z,43.85
2022-12-06T12:15:33.620Z,43.78
2022-12-06T12:18:03.194Z,43.17
2022-12-06T12:20:36.572Z,43.30
2022-12-06T12:23:18.540Z,43.38
2022-12-06T12:26:03.290Z,42.96
2022-12-06T12:28:34.232Z,42.84
2022-12-06T12:31:22.481Z,42.85
2022-12-06T12:34:25.241Z,42.82
2022-12-06T12:37:04.714Z,42.33
2022-12-06T12:39:41.720Z,42.80
2022-12-06T12:42:40.400Z,43.03
2022-12-06T12:45:20.080Z,42.92
2022-12-06T12:48:05.419Z,43.21
2022-12-06T12:50:34.082Z,43.41
2022-12-06T12:53:02.493Z,43.50
2022-12-06T12:55:32.105Z,43.46
2022-12-06T12:58:01.431Z,43.21
2022-12-06T13:00:38.230Z,43.55
2022-12-06T13:03:42.398Z,43.51
2022-12-06T13:06:01.864Z,44.11
2022-12-06T13:08:35.881Z,43.97
2022-12-06T13:11:05.846Z,44.18
2022-12-06T13:13:44.453Z,44.20
2022-12-06T13:16:18.855Z,44.16
2022-12-06T13:18:52.277Z,44.65
2022-12-06T13:21:24.394Z,44.47
2022-12-06T13:24:22.474Z,44.54
2022-12-06T13:26:58.726Z,44.65
2022-12-06T13:29:27.008Z,44.83
2022-12-06T13:31:58.786Z,44.81
2022-12-06T13:34:37.379Z,45.03
2022-12-06T13:37:58.705Z,44.96
2022-12-06T13:40:33.135Z,45.14
2022-12-06T13:43:23.217Z,45.03
2022-12-06T13:46:15.182Z,45.13
2022-12-06T13:48:57.485Z,45.57
2022-12-06T13:51:32.074Z,45.41
2022-12-06T13:54:06.576Z,45.44
2022-12-06T13:56:35.031Z,45.15
2022-12-06T13:59:12.995Z,45.38
2022-12-06T14:01:52.343Z,45.46
2022-12-06T14:05:00.820Z,45.53
2022-12-06T14:07:36.565Z,45.59
2022-12-06T14:10:13.604Z,45.65
2022-12-06T14:12:41.906Z,45.54
2022-12-06T14:15:20.262Z,45.63
2022-12-06T14:18:10.985Z,46.05
2022-12-06T14:20:37.346Z,45.88
2022-12-06T14:23:23.145Z,46.04
2022-12-06T14:25:51.845Z,46.02
2022-12-06T14:28:20.116Z,46.08
2022-12-06T14:30:49.998Z,46.01
2022-12-06T14:33:21.907Z,46.23
2022-12-06T14:35:54.809Z,46.40
2022-12-06T14:38:29.325Z,46.32
2022-12-06T14:41:17.126Z,46.50
2022-12-06T14:43:48.525Z,46.60
2022-12-06T14:46:18.372Z,46.25
2022-12-06T14:49:05.487Z,46.50
2022-12-06T14:51:43.091Z,46.56
2022-12-06T14:54:33.375Z,46.69
2022-12-06T14:57:02.926Z,46.59
2022-12-06T15:02:28.888Z,46.59
2022-12-06T15:04:58.037Z,46.22
2022-12-06T15:07:43.688Z,46.50
2022-12-06T15:10:22.104Z,46.25
2022-12-06T15:12:58.189Z,46.53
2022-12-06T15:15:37.505Z,46.35
2022-12-06T15:18:15.077Z,46.27
2022-12-06T15:20:43.364Z,46.66
2022-12-06T15:23:28.216Z,46.67
2022-12-06T15:25:56.638Z,46.30
2022-12-06T15:28:25.341Z,46.49
2022-12-06T15:30:53.753Z,46.70
2022-12-06T15:33:24.588Z,46.71
2022-12-06T15:35:53.157Z,46.71
2022-12-06T15:38:21.874Z,46.89
2022-12-06T15:40:51.985Z,47.07
2022-12-06T15:43:32.426Z,46.97
2022-12-06T15:46:03.137Z,47.25
2022-12-06T15:48:35.276Z,47.17
2022-12-06T15:51:10.360Z,47.28
2022-12-06T15:53:39.865Z,47.26
2022-12-06T15:56:16.746Z,47.38
2022-12-06T15:58:46.945Z,47.11
2022-12-06T16:01:22.402Z,47.29
2022-12-06T16:03:53.485Z,47.54
2022-12-06T16:06:23.498Z,47.05
2022-12-06T16:08:52.565Z,47.07
2022-12-06T16:11:24.164Z,46.76
2022-12-06T16:13:53.625Z,46.25
2022-12-06T16:16:23.175Z,46.13
2022-12-06T16:18:55.523Z,45.83
2022-12-06T16:21:29.875Z,45.60
2022-12-06T16:24:13.200Z,45.31
2022-12-06T16:26:44.765Z,45.31
2022-12-06T16:29:19.308Z,44.92
2022-12-06T16:31:48.044Z,44.89
2022-12-06T16:34:17.665Z,44.59
2022-12-06T16:37:00.732Z,44.18
2022-12-06T16:39:31.495Z,44.15
2022-12-06T16:42:00.565Z,43.75
2022-12-06T16:44:53.225Z,43.82
2022-12-06T16:49:50.015Z,43.43
2022-12-06T16:52:18.597Z,43.34
2022-12-06T16:54:46.917Z,43.26
2022-12-06T16:57:15.580Z,42.96
2022-12-06T16:59:44.060Z,43.00
2022-12-06T17:02:27.044Z,42.85
2022-12-06T17:04:59.192Z,42.51
2022-12-06T17:07:28.585Z,42.21
2022-12-06T17:09:57.004Z,42.52
2022-12-06T17:12:25.789Z,42.05
2022-12-06T17:14:54.085Z,42.08
2022-12-06T17:17:22.984Z,42.03
2022-12-06T17:19:51.275Z,41.93
2022-12-06T17:22:20.046Z,41.76
2022-12-06T17:24:49.365Z,41.91
2022-12-06T17:27:18.444Z,41.81
2022-12-06T17:29:47.168Z,41.68
2022-12-06T17:32:16.064Z,41.85
2022-12-06T17:34:44.684Z,41.82
2022-12-06T17:37:13.249Z,41.41
2022-12-06T17:39:42.218Z,41.73
2022-12-06T17:42:31.748Z,41.51
2022-12-06T17:45:00.861Z,41.50
2022-12-06T17:47:30.486Z,41.64
2022-12-06T17:49:59.342Z,41.82
2022-12-06T17:52:28.025Z,41.90
2022-12-06T17:54:56.648Z,41.75
2022-12-06T17:57:24.942Z,41.72
2022-12-06T17:59:53.546Z,41.39
2022-12-06T18:02:24.738Z,41.32
2022-12-06T18:04:56.447Z,41.84
2022-12-06T18:07:24.827Z,41.90
2022-12-06T18:09:53.666Z,42.31
2022-12-06T18:12:22.057Z,42.38
2022-12-06T18:14:50.685Z,42.10
2022-12-06T18:17:19.014Z,42.24
2022-12-06T18:19:47.558Z,42.61
2022-12-06T18:22:16.273Z,42.80
2022-12-06T18:24:45.022Z,42.63
2022-12-06T18:27:13.407Z,42.65
2022-12-06T18:29:42.353Z,43.11
2022-12-06T18:32:10.708Z,42.87
2022-12-06T18:34:40.381Z,42.80
2022-12-06T18:37:08.745Z,43.10
2022-12-06T18:39:37.825Z,42.57
2022-12-06T18:42:06.256Z,42.55
2022-12-06T18:44:36.286Z,42.51
2022-12-06T18:47:04.616Z,42.39
2022-12-06T18:49:33.328Z,42.62
2022-12-06T18:52:01.526Z,42.60
2022-12-06T18:54:30.156Z,42.45
2022-12-06T18:56:59.435Z,42.23
2022-12-06T18:59:28.969Z,42.58
2022-12-06T19:01:57.350Z,42.01
2022-12-06T19:04:26.074Z,42.13
2022-12-06T19:06:54.617Z,41.84
2022-12-06T19:09:24.834Z,41.76
2022-12-06T19:11:53.225Z,42.08
2022-12-06T19:14:23.358Z,42.25
2022-12-06T19:16:52.194Z,42.21
2022-12-06T19:19:24.265Z,42.55
2022-12-06T19:21:54.687Z,42.53
2022-12-06T19:24:26.017Z,42.63
2022-12-06T19:26:55.849Z,42.48
2022-12-06T19:29:25.497Z,42.58
2022-12-06T19:31:54.403Z,42.98
2022-12-06T19:34:25.836Z,42.85
2022-12-06T19:36:54.997Z,42.99
2022-12-06T19:39:24.405Z,43.12
2022-12-06T19:42:12.167Z,43.08
2022-12-06T19:44:42.246Z,43.09
2022-12-06T19:47:10.763Z,43.23
2022-12-06T19:49:39.926Z,43.32
2022-12-06T19:52:08.332Z,43.18
2022-12-06T19:54:37.702Z,43.16
2022-12-06T19:57:06.099Z,42.75
2022-12-06T19:59:36.107Z,42.76
2022-12-06T20:02:06.541Z,42.39
2022-12-06T20:04:37.786Z,42.43
2022-12-06T20:07:07.084Z,42.13
2022-12-06T20:09:37.315Z,42.14
2022-12-06T20:12:06.008Z,42.17
2022-12-06T20:14:40.197Z,42.06
2022-12-06T20:17:14.563Z,41.56
2022-12-06T20:19:43.626Z,41.66
2022-12-06T20:22:13.894Z,41.76
2022-12-06T20:24:43.274Z,41.62
2022-12-06T20:27:12.176Z,41.76
2022-12-06T20:29:41.105Z,41.57
2022-12-06T20:32:10.676Z,41.79
2022-12-06T20:34:40.116Z,41.79
2022-12-06T20:37:08.468Z,41.97
2022-12-06T20:39:37.267Z,42.02
2022-12-06T20:42:08.559Z,42.07
2022-12-06T20:44:37.186Z,42.13
2022-12-06T20:47:05.544Z,42.47
2022-12-06T20:49:34.995Z,42.11
2022-12-06T20:52:05.066Z,42.10
2022-12-06T20:54:34.930Z,42.27
2022-12-06T20:57:08.295Z,42.46
2022-12-06T20:59:38.293Z,42.84
2022-12-06T21:02:06.931Z,42.69
2022-12-06T21:04:36.751Z,42.58
2022-12-06T21:07:05.406Z,42.56
2022-12-06T21:09:34.191Z,42.08
2022-12-06T21:12:02.760Z,42.10
2022-12-06T21:14:32.549Z,42.23
2022-12-06T21:17:01.375Z,42.21
2022-12-06T21:19:30.096Z,41.93
2022-12-06T21:22:01.416Z,42.10
2022-12-06T21:24:30.065Z,41.69
2022-12-06T21:26:58.397Z,41.61
2022-12-06T21:29:30.922Z,41.55
2022-12-06T21:32:02.775Z,41.38
2022-12-06T21:34:31.369Z,41.52
2022-12-06T21:36:59.735Z,41.40
2022-12-06T21:39:29.725Z,41.81
2022-12-06T21:41:58.247Z,41.81
2022-12-06T21:44:26.842Z,41.93
2022-12-06T21:46:55.248Z,42.16
2022-12-06T21:49:23.993Z,42.10
2022-12-06T21:52:00.206Z,42.11
2022-12-06T21:54:30.863Z,42.20
2022-12-06T21:56:59.115Z,42.40
2022-12-06T21:59:27.881Z,42.59
2022-12-06T22:01:56.381Z,42.44
2022-12-06T22:04:25.022Z,42.49
2022-12-06T22:06:53.603Z,42.46
2022-12-06T22:09:22.427Z,42.52
2022-12-06T22:11:50.934Z,42.62
2022-12-06T22:14:20.935Z,43.09
2022-12-06T22:16:53.064Z,43.10
2022-12-06T22:19:22.363Z,43.41
2022-12-06T22:21:50.839Z,43.62
2022-12-06T22:24:19.623Z,43.64
2022-12-06T22:26:48.050Z,43.48
2022-12-06T22:29:17.943Z,43.69
2022-12-06T22:31:46.509Z,43.55
2022-12-06T22:34:15.064Z,43.35
2022-12-06T22:36:43.532Z,43.48
2022-12-06T22:39:12.152Z,43.72
2022-12-06T22:41:40.374Z,43.64
2022-12-06T22:44:12.517Z,43.46
2022-12-06T22:46:40.913Z,43.53
2022-12-06T22:49:17.690Z,43.54
2022-12-06T22:51:47.334Z,43.80
2022-12-06T22:54:17.558Z,43.72
2022-12-06T22:56:49.344Z,43.95
2022-12-06T22:59:19.365Z,43.58
2022-12-06T23:01:47.592Z,43.75
2022-12-06T23:04:16.382Z,43.55
2022-12-06T23:06:44.628Z,43.85
2022-12-06T23:09:15.989Z,43.78
2022-12-06T23:11:44.442Z,43.54
2022-12-06T23:14:13.212Z,43.65
2022-12-06T23:16:44.053Z,43.59
2022-12-06T23:19:14.033Z,43.47
2022-12-06T23:21:43.058Z,43.74
2022-12-06T23:24:14.270Z,43.43
2022-12-06T23:26:45.329Z,43.96
2022-12-06T23:29:15.465Z,43.94
2022-12-06T23:31:45.647Z,43.88
2022-12-06T23:34:22.543Z,44.14
2022-12-06T23:36:51.103Z,43.96
2022-12-06T23:39:20.307Z,44.22
2022-12-06T23:41:48.693Z,43.88
2022-12-06T23:44:17.371Z,44.23
2022-12-06T23:46:46.208Z,44.22
2022-12-06T23:49:18.414Z,44.11
2022-12-06T23:51:47.496Z,44.24
2022-12-06T23:54:17.373Z,44.60
2022-12-06T23:56:46.495Z,44.36
2022-12-06T23:59:16.172Z,44.46
